Southeast, Michigan
Current Conditions -  °F | °C
As of 1:53 AM on Monday 24 Nov 2014 (Local Time) from KFNT Reporting Station
Light Rain Light Rain  
Wind Chill: 53°   Ceiling: 1300
Heat Index: 53°   Visibility: 9mi
Dew Point: 50°   Wind: 15mph
Humidity: 89%   Direction: 160°SSE
Pressure: 29.08"   Gusts: 24mph
Location:  42.972°N, 83.6629°W
Report Text: KFNT 240653Z AUTO 16013G21KT 9SM -RA BKN013 OVC017 12/10 A2908 RMK AO2 SLP849 P0011 T01170100
Loading
Personal Weather Stations






























Interactive Weather Map New forecast layout! Learn more

10-Day Weather Forecast

Advertisements
Track Severe Weather on mobile